sensor_id;sensor_type;location;lat;lon;timestamp;P1;durP1;ratioP1;P2;durP2;ratioP2
10902;SDS011;5504;47.312;11.060;2022-12-24T00:02:19;6.47;;;5.17;;
10902;SDS011;5504;47.312;11.060;2022-12-24T00:04:44;5.20;;;4.53;;
10902;SDS011;5504;47.312;11.060;2022-12-24T00:07:10;4.80;;;4.10;;
10902;SDS011;5504;47.312;11.060;2022-12-24T00:09:36;4.00;;;3.43;;
10902;SDS011;5504;47.312;11.060;2022-12-24T00:12:02;3.90;;;3.50;;
10902;SDS011;5504;47.312;11.060;2022-12-24T00:14:28;4.27;;;3.67;;
10902;SDS011;5504;47.312;11.060;2022-12-24T00:16:53;4.37;;;3.50;;
10902;SDS011;5504;47.312;11.060;2022-12-24T00:19:19;3.60;;;3.30;;
10902;SDS011;5504;47.312;11.060;2022-12-24T00:21:45;3.33;;;2.80;;
10902;SDS011;5504;47.312;11.060;2022-12-24T00:24:10;3.67;;;3.23;;
10902;SDS011;5504;47.312;11.060;2022-12-24T00:26:36;4.57;;;3.60;;
10902;SDS011;5504;47.312;11.060;2022-12-24T00:29:02;3.70;;;3.23;;
10902;SDS011;5504;47.312;11.060;2022-12-24T00:31:27;3.80;;;3.17;;
10902;SDS011;5504;47.312;11.060;2022-12-24T00:33:53;4.47;;;3.40;;
10902;SDS011;5504;47.312;11.060;2022-12-24T00:36:19;4.10;;;3.70;;
10902;SDS011;5504;47.312;11.060;2022-12-24T00:38:46;4.40;;;4.00;;
10902;SDS011;5504;47.312;11.060;2022-12-24T00:41:13;3.80;;;3.50;;
10902;SDS011;5504;47.312;11.060;2022-12-24T00:43:56;3.27;;;2.53;;
10902;SDS011;5504;47.312;11.060;2022-12-24T00:46:24;2.40;;;2.20;;
10902;SDS011;5504;47.312;11.060;2022-12-24T00:48:51;2.27;;;2.07;;
10902;SDS011;5504;47.312;11.060;2022-12-24T00:51:17;3.00;;;2.37;;
10902;SDS011;5504;47.312;11.060;2022-12-24T00:53:44;2.73;;;2.30;;
10902;SDS011;5504;47.312;11.060;2022-12-24T00:56:09;2.53;;;2.33;;
10902;SDS011;5504;47.312;11.060;2022-12-24T00:58:35;2.03;;;1.83;;
10902;SDS011;5504;47.312;11.060;2022-12-24T01:01:01;1.50;;;1.40;;
10902;SDS011;5504;47.312;11.060;2022-12-24T01:03:27;2.57;;;2.37;;
10902;SDS011;5504;47.312;11.060;2022-12-24T01:06:11;2.93;;;1.97;;
10902;SDS011;5504;47.312;11.060;2022-12-24T01:08:40;1.70;;;1.60;;
10902;SDS011;5504;47.312;11.060;2022-12-24T01:11:06;1.33;;;1.23;;
10902;SDS011;5504;47.312;11.060;2022-12-24T01:13:34;2.20;;;1.30;;
10902;SDS011;5504;47.312;11.060;2022-12-24T01:16:00;2.00;;;1.40;;
10902;SDS011;5504;47.312;11.060;2022-12-24T01:18:26;1.70;;;1.60;;
10902;SDS011;5504;47.312;11.060;2022-12-24T01:20:58;2.60;;;1.37;;
10902;SDS011;5504;47.312;11.060;2022-12-24T01:23:26;2.00;;;1.30;;
10902;SDS011;5504;47.312;11.060;2022-12-24T01:25:53;1.60;;;1.50;;
10902;SDS011;5504;47.312;11.060;2022-12-24T01:28:19;2.10;;;1.60;;
10902;SDS011;5504;47.312;11.060;2022-12-24T01:30:46;1.50;;;1.40;;
10902;SDS011;5504;47.312;11.060;2022-12-24T01:33:13;1.40;;;1.30;;
10902;SDS011;5504;47.312;11.060;2022-12-24T01:35:39;1.80;;;1.70;;
10902;SDS011;5504;47.312;11.060;2022-12-24T01:38:05;1.70;;;1.50;;
10902;SDS011;5504;47.312;11.060;2022-12-24T01:40:31;1.57;;;1.47;;
10902;SDS011;5504;47.312;11.060;2022-12-24T01:43:16;2.70;;;1.87;;
10902;SDS011;5504;47.312;11.060;2022-12-24T01:50:53;1.03;;;1.00;;
10902;SDS011;5504;47.312;11.060;2022-12-24T01:53:22;1.77;;;1.00;;
10902;SDS011;5504;47.312;11.060;2022-12-24T01:55:48;1.70;;;1.40;;
10902;SDS011;5504;47.312;11.060;2022-12-24T01:58:15;1.20;;;1.10;;
10902;SDS011;5504;47.312;11.060;2022-12-24T02:00:43;1.30;;;1.20;;
10902;SDS011;5504;47.312;11.060;2022-12-24T02:03:09;2.07;;;1.40;;
10902;SDS011;5504;47.312;11.060;2022-12-24T02:05:41;0.97;;;0.97;;
10902;SDS011;5504;47.312;11.060;2022-12-24T02:08:12;1.17;;;1.07;;
10902;SDS011;5504;47.312;11.060;2022-12-24T02:10:39;0.90;;;0.90;;
10902;SDS011;5504;47.312;11.060;2022-12-24T02:13:05;0.80;;;0.80;;
10902;SDS011;5504;47.312;11.060;2022-12-24T02:32:20;1.80;;;0.90;;
10902;SDS011;5504;47.312;11.060;2022-12-24T02:37:55;1.17;;;1.00;;
10902;SDS011;5504;47.312;11.060;2022-12-24T02:40:30;0.80;;;0.80;;
10902;SDS011;5504;47.312;11.060;2022-12-24T02:43:03;1.70;;;1.00;;
10902;SDS011;5504;47.312;11.060;2022-12-24T02:45:34;1.30;;;0.90;;
10902;SDS011;5504;47.312;11.060;2022-12-24T02:48:02;1.07;;;0.90;;
10902;SDS011;5504;47.312;11.060;2022-12-24T02:50:29;0.87;;;0.70;;
10902;SDS011;5504;47.312;11.060;2022-12-24T02:52:54;1.00;;;0.90;;
10902;SDS011;5504;47.312;11.060;2022-12-24T03:09:31;0.87;;;0.87;;
10902;SDS011;5504;47.312;11.060;2022-12-24T03:12:13;0.60;;;0.60;;
10902;SDS011;5504;47.312;11.060;2022-12-24T03:14:42;0.50;;;0.50;;
10902;SDS011;5504;47.312;11.060;2022-12-24T03:17:09;0.60;;;0.60;;
10902;SDS011;5504;47.312;11.060;2022-12-24T03:19:35;0.70;;;0.70;;
10902;SDS011;5504;47.312;11.060;2022-12-24T03:22:06;0.57;;;0.57;;
10902;SDS011;5504;47.312;11.060;2022-12-24T03:24:33;0.53;;;0.53;;
10902;SDS011;5504;47.312;11.060;2022-12-24T03:26:59;0.40;;;0.40;;
10902;SDS011;5504;47.312;11.060;2022-12-24T03:29:26;1.13;;;0.57;;
10902;SDS011;5504;47.312;11.060;2022-12-24T03:31:52;0.40;;;0.40;;
10902;SDS011;5504;47.312;11.060;2022-12-24T03:34:24;0.47;;;0.47;;
10902;SDS011;5504;47.312;11.060;2022-12-24T03:36:50;0.53;;;0.53;;
10902;SDS011;5504;47.312;11.060;2022-12-24T03:39:16;0.90;;;0.70;;
10902;SDS011;5504;47.312;11.060;2022-12-24T03:41:42;0.63;;;0.63;;
10902;SDS011;5504;47.312;11.060;2022-12-24T03:44:08;0.80;;;0.80;;
10902;SDS011;5504;47.312;11.060;2022-12-24T03:46:33;1.60;;;0.70;;
10902;SDS011;5504;47.312;11.060;2022-12-24T03:48:59;0.77;;;0.60;;
10902;SDS011;5504;47.312;11.060;2022-12-24T03:51:25;0.37;;;0.37;;
10902;SDS011;5504;47.312;11.060;2022-12-24T03:53:52;0.90;;;0.40;;
10902;SDS011;5504;47.312;11.060;2022-12-24T03:56:21;0.50;;;0.50;;
10902;SDS011;5504;47.312;11.060;2022-12-24T03:58:48;0.50;;;0.50;;
10902;SDS011;5504;47.312;11.060;2022-12-24T04:01:14;0.40;;;0.40;;
10902;SDS011;5504;47.312;11.060;2022-12-24T04:03:40;0.40;;;0.40;;
10902;SDS011;5504;47.312;11.060;2022-12-24T04:06:08;0.60;;;0.40;;
10902;SDS011;5504;47.312;11.060;2022-12-24T04:08:39;0.70;;;0.40;;
10902;SDS011;5504;47.312;11.060;2022-12-24T04:11:06;0.40;;;0.40;;
10902;SDS011;5504;47.312;11.060;2022-12-24T04:13:33;1.37;;;0.40;;
10902;SDS011;5504;47.312;11.060;2022-12-24T04:16:00;1.20;;;0.73;;
10902;SDS011;5504;47.312;11.060;2022-12-24T04:18:33;1.00;;;0.90;;
10902;SDS011;5504;47.312;11.060;2022-12-24T04:21:00;1.53;;;0.93;;
10902;SDS011;5504;47.312;11.060;2022-12-24T04:23:26;1.13;;;0.83;;
10902;SDS011;5504;47.312;11.060;2022-12-24T04:25:54;0.60;;;0.60;;
10902;SDS011;5504;47.312;11.060;2022-12-24T04:28:20;1.33;;;0.80;;
10902;SDS011;5504;47.312;11.060;2022-12-24T04:30:46;1.37;;;0.80;;
10902;SDS011;5504;47.312;11.060;2022-12-24T04:33:11;1.27;;;0.80;;
10902;SDS011;5504;47.312;11.060;2022-12-24T04:35:38;0.53;;;0.53;;
10902;SDS011;5504;47.312;11.060;2022-12-24T04:38:04;0.57;;;0.57;;
10902;SDS011;5504;47.312;11.060;2022-12-24T04:40:30;0.63;;;0.50;;
10902;SDS011;5504;47.312;11.060;2022-12-24T04:42:56;0.77;;;0.50;;
10902;SDS011;5504;47.312;11.060;2022-12-24T04:45:21;0.70;;;0.60;;
10902;SDS011;5504;47.312;11.060;2022-12-24T04:47:47;0.70;;;0.60;;
10902;SDS011;5504;47.312;11.060;2022-12-24T04:50:13;0.60;;;0.60;;
10902;SDS011;5504;47.312;11.060;2022-12-24T04:52:38;1.53;;;0.60;;
10902;SDS011;5504;47.312;11.060;2022-12-24T04:55:04;0.53;;;0.53;;
10902;SDS011;5504;47.312;11.060;2022-12-24T04:57:31;0.50;;;0.50;;
10902;SDS011;5504;47.312;11.060;2022-12-24T04:59:57;0.70;;;0.70;;
10902;SDS011;5504;47.312;11.060;2022-12-24T05:02:23;0.53;;;0.50;;
10902;SDS011;5504;47.312;11.060;2022-12-24T05:04:49;0.50;;;0.50;;
10902;SDS011;5504;47.312;11.060;2022-12-24T05:07:15;0.60;;;0.60;;
10902;SDS011;5504;47.312;11.060;2022-12-24T05:09:41;0.50;;;0.50;;
10902;SDS011;5504;47.312;11.060;2022-12-24T05:12:06;0.50;;;0.50;;
10902;SDS011;5504;47.312;11.060;2022-12-24T05:14:32;0.60;;;0.50;;
10902;SDS011;5504;47.312;11.060;2022-12-24T05:16:58;0.70;;;0.50;;
10902;SDS011;5504;47.312;11.060;2022-12-24T05:19:24;0.50;;;0.50;;
10902;SDS011;5504;47.312;11.060;2022-12-24T05:21:49;1.07;;;0.60;;
10902;SDS011;5504;47.312;11.060;2022-12-24T05:24:35;0.60;;;0.60;;
10902;SDS011;5504;47.312;11.060;2022-12-24T05:27:19;0.57;;;0.57;;
10902;SDS011;5504;47.312;11.060;2022-12-24T05:29:45;1.47;;;0.80;;
10902;SDS011;5504;47.312;11.060;2022-12-24T05:32:11;0.50;;;0.50;;
10902;SDS011;5504;47.312;11.060;2022-12-24T05:34:36;0.67;;;0.60;;
10902;SDS011;5504;47.312;11.060;2022-12-24T05:37:02;0.60;;;0.57;;
10902;SDS011;5504;47.312;11.060;2022-12-24T05:39:28;0.50;;;0.50;;
10902;SDS011;5504;47.312;11.060;2022-12-24T05:41:54;0.60;;;0.60;;
10902;SDS011;5504;47.312;11.060;2022-12-24T05:44:19;7.43;;;4.63;;
10902;SDS011;5504;47.312;11.060;2022-12-24T05:46:45;2.90;;;2.30;;
10902;SDS011;5504;47.312;11.060;2022-12-24T05:49:11;5.57;;;3.47;;
10902;SDS011;5504;47.312;11.060;2022-12-24T05:51:37;7.23;;;5.43;;
10902;SDS011;5504;47.312;11.060;2022-12-24T05:54:04;9.27;;;6.63;;
10902;SDS011;5504;47.312;11.060;2022-12-24T05:56:30;4.87;;;3.90;;
10902;SDS011;5504;47.312;11.060;2022-12-24T05:58:56;3.93;;;3.07;;
10902;SDS011;5504;47.312;11.060;2022-12-24T06:01:22;3.20;;;2.50;;
10902;SDS011;5504;47.312;11.060;2022-12-24T06:03:48;3.30;;;2.63;;
10902;SDS011;5504;47.312;11.060;2022-12-24T06:06:17;2.57;;;2.10;;
10902;SDS011;5504;47.312;11.060;2022-12-24T06:08:45;1.73;;;1.47;;
10902;SDS011;5504;47.312;11.060;2022-12-24T06:11:11;1.80;;;1.50;;
10902;SDS011;5504;47.312;11.060;2022-12-24T06:13:39;1.97;;;1.60;;
10902;SDS011;5504;47.312;11.060;2022-12-24T06:16:06;1.37;;;1.27;;
10902;SDS011;5504;47.312;11.060;2022-12-24T06:18:34;0.70;;;0.70;;
10902;SDS011;5504;47.312;11.060;2022-12-24T06:21:01;0.80;;;0.50;;
10902;SDS011;5504;47.312;11.060;2022-12-24T06:23:28;1.90;;;1.80;;
10902;SDS011;5504;47.312;11.060;2022-12-24T06:25:54;0.73;;;0.60;;
10902;SDS011;5504;47.312;11.060;2022-12-24T06:28:22;0.70;;;0.50;;
10902;SDS011;5504;47.312;11.060;2022-12-24T06:30:48;0.60;;;0.60;;
10902;SDS011;5504;47.312;11.060;2022-12-24T06:33:14;0.50;;;0.50;;
10902;SDS011;5504;47.312;11.060;2022-12-24T06:35:41;0.40;;;0.40;;
10902;SDS011;5504;47.312;11.060;2022-12-24T06:38:09;0.60;;;0.60;;
10902;SDS011;5504;47.312;11.060;2022-12-24T06:40:36;1.00;;;0.60;;
10902;SDS011;5504;47.312;11.060;2022-12-24T06:43:03;2.20;;;0.80;;
10902;SDS011;5504;47.312;11.060;2022-12-24T06:45:29;0.40;;;0.40;;
10902;SDS011;5504;47.312;11.060;2022-12-24T06:47:56;0.80;;;0.60;;
10902;SDS011;5504;47.312;11.060;2022-12-24T06:50:22;0.60;;;0.60;;
10902;SDS011;5504;47.312;11.060;2022-12-24T06:52:47;1.37;;;0.40;;
10902;SDS011;5504;47.312;11.060;2022-12-24T06:55:13;0.50;;;0.50;;
10902;SDS011;5504;47.312;11.060;2022-12-24T06:57:39;0.70;;;0.70;;
10902;SDS011;5504;47.312;11.060;2022-12-24T07:00:06;0.80;;;0.77;;
10902;SDS011;5504;47.312;11.060;2022-12-24T07:02:33;0.80;;;0.80;;
10902;SDS011;5504;47.312;11.060;2022-12-24T07:04:58;0.80;;;0.73;;
10902;SDS011;5504;47.312;11.060;2022-12-24T07:07:24;0.80;;;0.80;;
10902;SDS011;5504;47.312;11.060;2022-12-24T07:09:50;0.60;;;0.60;;
10902;SDS011;5504;47.312;11.060;2022-12-24T07:12:15;0.60;;;0.60;;
10902;SDS011;5504;47.312;11.060;2022-12-24T07:14:41;1.27;;;0.70;;
10902;SDS011;5504;47.312;11.060;2022-12-24T07:17:07;0.73;;;0.73;;
10902;SDS011;5504;47.312;11.060;2022-12-24T07:19:32;0.70;;;0.60;;
10902;SDS011;5504;47.312;11.060;2022-12-24T07:21:58;1.33;;;0.80;;
10902;SDS011;5504;47.312;11.060;2022-12-24T07:24:24;0.50;;;0.50;;
10902;SDS011;5504;47.312;11.060;2022-12-24T07:26:50;0.77;;;0.77;;
10902;SDS011;5504;47.312;11.060;2022-12-24T07:29:15;0.67;;;0.67;;
10902;SDS011;5504;47.312;11.060;2022-12-24T07:31:41;1.60;;;0.80;;
10902;SDS011;5504;47.312;11.060;2022-12-24T07:34:07;0.70;;;0.70;;
10902;SDS011;5504;47.312;11.060;2022-12-24T07:36:32;1.50;;;0.90;;
10902;SDS011;5504;47.312;11.060;2022-12-24T07:38:58;1.13;;;0.73;;
10902;SDS011;5504;47.312;11.060;2022-12-24T07:41:24;0.97;;;0.80;;
10902;SDS011;5504;47.312;11.060;2022-12-24T07:43:49;0.80;;;0.80;;
10902;SDS011;5504;47.312;11.060;2022-12-24T07:46:15;0.80;;;0.80;;
10902;SDS011;5504;47.312;11.060;2022-12-24T07:48:41;0.63;;;0.63;;
10902;SDS011;5504;47.312;11.060;2022-12-24T07:51:06;1.20;;;1.10;;
10902;SDS011;5504;47.312;11.060;2022-12-24T07:53:32;1.10;;;1.00;;
10902;SDS011;5504;47.312;11.060;2022-12-24T07:55:58;1.60;;;1.10;;
10902;SDS011;5504;47.312;11.060;2022-12-24T07:58:24;0.90;;;0.90;;
10902;SDS011;5504;47.312;11.060;2022-12-24T08:00:56;2.20;;;0.93;;
10902;SDS011;5504;47.312;11.060;2022-12-24T08:03:23;1.27;;;0.80;;
10902;SDS011;5504;47.312;11.060;2022-12-24T08:05:49;1.20;;;0.77;;
10902;SDS011;5504;47.312;11.060;2022-12-24T08:08:16;1.70;;;0.70;;
10902;SDS011;5504;47.312;11.060;2022-12-24T08:10:43;1.00;;;0.90;;
10902;SDS011;5504;47.312;11.060;2022-12-24T08:13:10;1.67;;;0.70;;
10902;SDS011;5504;47.312;11.060;2022-12-24T08:15:36;1.17;;;0.63;;
10902;SDS011;5504;47.312;11.060;2022-12-24T08:18:02;0.60;;;0.60;;
10902;SDS011;5504;47.312;11.060;2022-12-24T08:20:28;0.73;;;0.70;;
10902;SDS011;5504;47.312;11.060;2022-12-24T08:22:53;1.07;;;0.60;;
10902;SDS011;5504;47.312;11.060;2022-12-24T08:25:19;2.30;;;1.00;;
10902;SDS011;5504;47.312;11.060;2022-12-24T08:27:45;1.13;;;0.90;;
10902;SDS011;5504;47.312;11.060;2022-12-24T08:30:12;1.43;;;0.90;;
10902;SDS011;5504;47.312;11.060;2022-12-24T08:32:38;1.17;;;0.80;;
10902;SDS011;5504;47.312;11.060;2022-12-24T08:35:04;0.90;;;0.90;;
10902;SDS011;5504;47.312;11.060;2022-12-24T08:37:30;1.70;;;1.00;;
10902;SDS011;5504;47.312;11.060;2022-12-24T08:39:56;2.03;;;1.00;;
10902;SDS011;5504;47.312;11.060;2022-12-24T08:42:22;0.80;;;0.80;;
10902;SDS011;5504;47.312;11.060;2022-12-24T08:44:48;0.60;;;0.60;;
10902;SDS011;5504;47.312;11.060;2022-12-24T08:47:13;0.80;;;0.80;;
10902;SDS011;5504;47.312;11.060;2022-12-24T08:49:39;5.70;;;4.10;;
10902;SDS011;5504;47.312;11.060;2022-12-24T08:52:05;4.20;;;3.10;;
10902;SDS011;5504;47.312;11.060;2022-12-24T08:54:31;2.00;;;1.63;;
10902;SDS011;5504;47.312;11.060;2022-12-24T08:56:56;4.40;;;2.43;;
10902;SDS011;5504;47.312;11.060;2022-12-24T08:59:22;3.13;;;2.03;;
10902;SDS011;5504;47.312;11.060;2022-12-24T09:01:48;2.53;;;1.80;;
10902;SDS011;5504;47.312;11.060;2022-12-24T09:04:13;3.03;;;1.50;;
10902;SDS011;5504;47.312;11.060;2022-12-24T09:06:39;3.77;;;2.40;;
10902;SDS011;5504;47.312;11.060;2022-12-24T09:09:05;3.03;;;2.00;;
10902;SDS011;5504;47.312;11.060;2022-12-24T09:11:33;3.43;;;1.90;;
10902;SDS011;5504;47.312;11.060;2022-12-24T09:13:59;4.50;;;2.07;;
10902;SDS011;5504;47.312;11.060;2022-12-24T09:16:25;3.20;;;1.93;;
10902;SDS011;5504;47.312;11.060;2022-12-24T09:18:51;2.30;;;1.60;;
10902;SDS011;5504;47.312;11.060;2022-12-24T09:21:17;1.93;;;1.40;;
10902;SDS011;5504;47.312;11.060;2022-12-24T09:23:43;1.67;;;1.47;;
10902;SDS011;5504;47.312;11.060;2022-12-24T09:26:14;2.20;;;1.70;;
10902;SDS011;5504;47.312;11.060;2022-12-24T09:28:45;1.87;;;1.60;;
10902;SDS011;5504;47.312;11.060;2022-12-24T09:31:12;2.40;;;1.80;;
10902;SDS011;5504;47.312;11.060;2022-12-24T09:33:38;2.73;;;1.70;;
10902;SDS011;5504;47.312;11.060;2022-12-24T09:36:05;3.03;;;2.10;;
10902;SDS011;5504;47.312;11.060;2022-12-24T09:38:31;4.67;;;2.00;;
10902;SDS011;5504;47.312;11.060;2022-12-24T09:40:58;7.23;;;6.50;;
10902;SDS011;5504;47.312;11.060;2022-12-24T09:43:25;4.50;;;4.10;;
10902;SDS011;5504;47.312;11.060;2022-12-24T09:48:33;9.97;;;8.93;;
10902;SDS011;5504;47.312;11.060;2022-12-24T09:51:07;9.90;;;7.80;;
10902;SDS011;5504;47.312;11.060;2022-12-24T09:53:47;6.93;;;6.20;;
10902;SDS011;5504;47.312;11.060;2022-12-24T09:56:21;4.73;;;4.27;;
10902;SDS011;5504;47.312;11.060;2022-12-24T09:59:00;3.97;;;3.67;;
10902;SDS011;5504;47.312;11.060;2022-12-24T10:01:31;7.07;;;5.97;;
10902;SDS011;5504;47.312;11.060;2022-12-24T10:04:07;6.27;;;5.60;;
10902;SDS011;5504;47.312;11.060;2022-12-24T10:09:22;7.27;;;6.57;;
10902;SDS011;5504;47.312;11.060;2022-12-24T10:22:52;7.40;;;5.80;;
10902;SDS011;5504;47.312;11.060;2022-12-24T10:28:21;10.43;;;9.33;;
10902;SDS011;5504;47.312;11.060;2022-12-24T10:30:54;10.07;;;8.97;;
10902;SDS011;5504;47.312;11.060;2022-12-24T10:33:27;7.63;;;6.53;;
10902;SDS011;5504;47.312;11.060;2022-12-24T10:36:16;6.83;;;6.13;;
10902;SDS011;5504;47.312;11.060;2022-12-24T10:38:44;6.77;;;6.07;;
10902;SDS011;5504;47.312;11.060;2022-12-24T10:41:11;7.83;;;6.80;;
10902;SDS011;5504;47.312;11.060;2022-12-24T10:43:38;7.10;;;6.40;;
10902;SDS011;5504;47.312;11.060;2022-12-24T10:46:17;8.20;;;6.10;;
10902;SDS011;5504;47.312;11.060;2022-12-24T10:48:54;6.03;;;5.43;;
10902;SDS011;5504;47.312;11.060;2022-12-24T10:54:21;7.30;;;6.60;;
10902;SDS011;5504;47.312;11.060;2022-12-24T10:56:49;8.00;;;6.80;;
10902;SDS011;5504;47.312;11.060;2022-12-24T10:59:24;7.37;;;6.50;;
10902;SDS011;5504;47.312;11.060;2022-12-24T11:01:53;6.70;;;6.00;;
10902;SDS011;5504;47.312;11.060;2022-12-24T11:04:24;7.57;;;6.77;;
10902;SDS011;5504;47.312;11.060;2022-12-24T11:06:53;7.70;;;6.07;;
10902;SDS011;5504;47.312;11.060;2022-12-24T11:09:27;7.37;;;6.40;;
10902;SDS011;5504;47.312;11.060;2022-12-24T11:12:02;6.97;;;6.23;;
10902;SDS011;5504;47.312;11.060;2022-12-24T11:14:33;9.47;;;7.30;;
10902;SDS011;5504;47.312;11.060;2022-12-24T11:17:01;8.23;;;6.97;;
10902;SDS011;5504;47.312;11.060;2022-12-24T11:19:31;7.60;;;6.80;;
10902;SDS011;5504;47.312;11.060;2022-12-24T11:22:06;7.70;;;6.90;;
10902;SDS011;5504;47.312;11.060;2022-12-24T11:24:42;8.60;;;7.20;;
10902;SDS011;5504;47.312;11.060;2022-12-24T11:32:49;6.00;;;5.37;;
10902;SDS011;5504;47.312;11.060;2022-12-24T11:35:38;7.07;;;5.80;;
10902;SDS011;5504;47.312;11.060;2022-12-24T11:38:10;7.60;;;5.67;;
10902;SDS011;5504;47.312;11.060;2022-12-24T11:40:43;6.13;;;5.53;;
10902;SDS011;5504;47.312;11.060;2022-12-24T11:43:15;7.87;;;5.90;;
10902;SDS011;5504;47.312;11.060;2022-12-24T11:45:53;6.13;;;5.37;;
10902;SDS011;5504;47.312;11.060;2022-12-24T11:49:03;5.70;;;4.77;;
10902;SDS011;5504;47.312;11.060;2022-12-24T11:51:24;6.10;;;4.90;;
10902;SDS011;5504;47.312;11.060;2022-12-24T11:59:50;5.73;;;4.90;;
10902;SDS011;5504;47.312;11.060;2022-12-24T12:02:27;6.20;;;4.90;;
10902;SDS011;5504;47.312;11.060;2022-12-24T12:05:02;6.30;;;5.00;;
10902;SDS011;5504;47.312;11.060;2022-12-24T12:07:33;7.47;;;5.20;;
10902;SDS011;5504;47.312;11.060;2022-12-24T12:10:17;6.37;;;4.97;;
10902;SDS011;5504;47.312;11.060;2022-12-24T12:13:04;5.53;;;4.57;;
10902;SDS011;5504;47.312;11.060;2022-12-24T12:15:39;4.90;;;4.47;;
10902;SDS011;5504;47.312;11.060;2022-12-24T12:18:25;6.10;;;4.63;;
10902;SDS011;5504;47.312;11.060;2022-12-24T12:20:59;7.53;;;5.63;;
10902;SDS011;5504;47.312;11.060;2022-12-24T12:23:34;7.40;;;6.60;;
10902;SDS011;5504;47.312;11.060;2022-12-24T12:26:12;7.57;;;6.70;;
10902;SDS011;5504;47.312;11.060;2022-12-24T12:28:53;7.80;;;7.00;;
10902;SDS011;5504;47.312;11.060;2022-12-24T12:31:40;10.70;;;8.27;;
10902;SDS011;5504;47.312;11.060;2022-12-24T12:34:10;9.63;;;8.00;;
10902;SDS011;5504;47.312;11.060;2022-12-24T12:36:47;11.73;;;8.03;;
10902;SDS011;5504;47.312;11.060;2022-12-24T12:39:16;12.03;;;8.60;;
10902;SDS011;5504;47.312;11.060;2022-12-24T12:47:27;10.20;;;8.00;;
10902;SDS011;5504;47.312;11.060;2022-12-24T12:53:20;9.93;;;8.40;;
10902;SDS011;5504;47.312;11.060;2022-12-24T12:58:46;8.10;;;7.00;;
10902;SDS011;5504;47.312;11.060;2022-12-24T13:10:02;10.40;;;8.03;;
10902;SDS011;5504;47.312;11.060;2022-12-24T13:12:53;9.87;;;8.87;;
10902;SDS011;5504;47.312;11.060;2022-12-24T13:18:50;8.60;;;7.43;;
10902;SDS011;5504;47.312;11.060;2022-12-24T13:21:20;9.20;;;8.30;;
10902;SDS011;5504;47.312;11.060;2022-12-24T13:23:49;9.03;;;8.13;;
10902;SDS011;5504;47.312;11.060;2022-12-24T13:26:15;10.03;;;8.23;;
10902;SDS011;5504;47.312;11.060;2022-12-24T13:28:41;9.83;;;8.37;;
10902;SDS011;5504;47.312;11.060;2022-12-24T13:36:05;10.03;;;8.90;;
10902;SDS011;5504;47.312;11.060;2022-12-24T13:38:51;10.73;;;9.63;;
10902;SDS011;5504;47.312;11.060;2022-12-24T13:46:49;8.27;;;7.00;;
10902;SDS011;5504;47.312;11.060;2022-12-24T13:49:29;8.53;;;6.40;;
10902;SDS011;5504;47.312;11.060;2022-12-24T13:54:44;36.07;;;32.47;;
10902;SDS011;5504;47.312;11.060;2022-12-24T14:00:42;12.63;;;11.33;;
10902;SDS011;5504;47.312;11.060;2022-12-24T14:05:29;5.43;;;4.93;;
10902;SDS011;5504;47.312;11.060;2022-12-24T14:11:05;2.23;;;2.03;;
10902;SDS011;5504;47.312;11.060;2022-12-24T14:16:03;3.10;;;2.60;;
10902;SDS011;5504;47.312;11.060;2022-12-24T14:18:39;5.03;;;3.90;;
10902;SDS011;5504;47.312;11.060;2022-12-24T14:21:13;21.93;;;20.07;;
10902;SDS011;5504;47.312;11.060;2022-12-24T14:26:20;14.03;;;12.80;;
10902;SDS011;5504;47.312;11.060;2022-12-24T14:28:54;11.63;;;10.53;;
10902;SDS011;5504;47.312;11.060;2022-12-24T14:31:26;11.60;;;10.50;;
10902;SDS011;5504;47.312;11.060;2022-12-24T14:33:53;11.20;;;10.10;;
10902;SDS011;5504;47.312;11.060;2022-12-24T14:36:30;6.37;;;5.77;;
10902;SDS011;5504;47.312;11.060;2022-12-24T14:38:56;6.30;;;5.40;;
10902;SDS011;5504;47.312;11.060;2022-12-24T14:44:23;10.90;;;7.27;;
10902;SDS011;5504;47.312;11.060;2022-12-24T14:46:55;7.63;;;6.40;;
10902;SDS011;5504;47.312;11.060;2022-12-24T14:54:53;8.57;;;7.20;;
10902;SDS011;5504;47.312;11.060;2022-12-24T14:57:20;8.00;;;7.00;;
10902;SDS011;5504;47.312;11.060;2022-12-24T14:59:55;7.27;;;6.07;;
10902;SDS011;5504;47.312;11.060;2022-12-24T15:02:37;7.27;;;6.53;;
10902;SDS011;5504;47.312;11.060;2022-12-24T15:05:13;8.13;;;7.33;;
10902;SDS011;5504;47.312;11.060;2022-12-24T15:07:44;10.10;;;8.87;;
10902;SDS011;5504;47.312;11.060;2022-12-24T15:10:29;10.17;;;9.07;;
10902;SDS011;5504;47.312;11.060;2022-12-24T15:13:18;9.30;;;8.10;;
10902;SDS011;5504;47.312;11.060;2022-12-24T15:15:54;10.10;;;9.07;;
10902;SDS011;5504;47.312;11.060;2022-12-24T15:18:22;9.10;;;8.10;;
10902;SDS011;5504;47.312;11.060;2022-12-24T15:20:51;8.20;;;7.10;;
10902;SDS011;5504;47.312;11.060;2022-12-24T15:23:20;7.60;;;6.80;;
10902;SDS011;5504;47.312;11.060;2022-12-24T15:25:50;6.77;;;5.77;;
10902;SDS011;5504;47.312;11.060;2022-12-24T15:28:34;7.33;;;5.43;;
10902;SDS011;5504;47.312;11.060;2022-12-24T15:31:12;6.70;;;5.40;;
10902;SDS011;5504;47.312;11.060;2022-12-24T15:33:45;5.50;;;4.90;;
10902;SDS011;5504;47.312;11.060;2022-12-24T15:36:17;5.70;;;5.10;;
10902;SDS011;5504;47.312;11.060;2022-12-24T15:38:53;4.90;;;4.40;;
10902;SDS011;5504;47.312;11.060;2022-12-24T15:41:22;3.97;;;3.20;;
10902;SDS011;5504;47.312;11.060;2022-12-24T15:43:51;4.37;;;2.80;;
10902;SDS011;5504;47.312;11.060;2022-12-24T15:48:49;6.37;;;3.10;;
10902;SDS011;5504;47.312;11.060;2022-12-24T15:51:23;9.80;;;4.90;;
10902;SDS011;5504;47.312;11.060;2022-12-24T15:53:58;5.63;;;4.40;;
10902;SDS011;5504;47.312;11.060;2022-12-24T15:56:31;3.83;;;3.30;;
10902;SDS011;5504;47.312;11.060;2022-12-24T16:01:51;4.47;;;3.80;;
10902;SDS011;5504;47.312;11.060;2022-12-24T16:04:21;8.10;;;4.50;;
10902;SDS011;5504;47.312;11.060;2022-12-24T16:06:51;5.47;;;3.90;;
10902;SDS011;5504;47.312;11.060;2022-12-24T16:09:30;4.10;;;3.13;;
10902;SDS011;5504;47.312;11.060;2022-12-24T16:12:10;5.80;;;3.77;;
10902;SDS011;5504;47.312;11.060;2022-12-24T16:14:44;4.07;;;2.90;;
10902;SDS011;5504;47.312;11.060;2022-12-24T16:17:17;3.07;;;2.67;;
10902;SDS011;5504;47.312;11.060;2022-12-24T16:19:46;3.10;;;2.20;;
10902;SDS011;5504;47.312;11.060;2022-12-24T16:22:16;4.83;;;2.30;;
10902;SDS011;5504;47.312;11.060;2022-12-24T16:24:57;4.73;;;2.93;;
10902;SDS011;5504;47.312;11.060;2022-12-24T16:27:23;5.73;;;3.30;;
10902;SDS011;5504;47.312;11.060;2022-12-24T16:29:49;3.87;;;2.93;;
10902;SDS011;5504;47.312;11.060;2022-12-24T16:32:35;5.00;;;3.17;;
10902;SDS011;5504;47.312;11.060;2022-12-24T16:35:03;5.00;;;3.00;;
10902;SDS011;5504;47.312;11.060;2022-12-24T16:37:29;3.63;;;3.00;;
10902;SDS011;5504;47.312;11.060;2022-12-24T16:39:55;3.73;;;2.70;;
10902;SDS011;5504;47.312;11.060;2022-12-24T16:42:21;2.60;;;2.40;;
10902;SDS011;5504;47.312;11.060;2022-12-24T16:45:05;2.90;;;2.40;;
10902;SDS011;5504;47.312;11.060;2022-12-24T16:47:32;3.37;;;2.30;;
10902;SDS011;5504;47.312;11.060;2022-12-24T16:50:00;2.27;;;2.07;;
10902;SDS011;5504;47.312;11.060;2022-12-24T16:52:28;3.43;;;2.60;;
10902;SDS011;5504;47.312;11.060;2022-12-24T16:54:57;4.70;;;2.60;;
10902;SDS011;5504;47.312;11.060;2022-12-24T16:57:24;3.63;;;2.80;;
10902;SDS011;5504;47.312;11.060;2022-12-24T16:59:50;4.23;;;2.93;;
10902;SDS011;5504;47.312;11.060;2022-12-24T17:02:18;3.33;;;2.63;;
10902;SDS011;5504;47.312;11.060;2022-12-24T17:04:46;3.20;;;2.77;;
10902;SDS011;5504;47.312;11.060;2022-12-24T17:07:14;2.83;;;2.47;;
10902;SDS011;5504;47.312;11.060;2022-12-24T17:09:42;2.30;;;2.00;;
10902;SDS011;5504;47.312;11.060;2022-12-24T17:12:07;4.03;;;2.43;;
10902;SDS011;5504;47.312;11.060;2022-12-24T17:14:33;2.53;;;2.33;;
10902;SDS011;5504;47.312;11.060;2022-12-24T17:17:00;3.53;;;2.70;;